Time;durP1;ratioP1;P1;durP2;ratioP2;P2;SDS_P1;SDS_P2;PMS_P1;PMS_P2;Temp;Humidity;BMP_temperature;BMP_pressure;BME280_temperature;BME280_humidity;BME280_pressure;Samples;Min_cycle;Max_cycle;Signal;HPM_P1;HPM_P2
2022/03/25 00:03:57;;;;;;;33.40;14.18;;;;;;;1.52;57.89;100400.91;8394176;28;20531;-71
2022/03/25 00:07:58;;;;;;;36.80;13.73;;;;;;;1.52;58.01;100393.75;8395518;28;20036;-71
2022/03/25 00:11:59;;;;;;;33.97;14.73;;;;;;;1.49;57.93;100393.34;8343010;28;20101;-72
2022/03/25 00:16:00;;;;;;;35.90;15.02;;;;;;;1.45;58.42;100397.47;8383514;28;20496;-72
2022/03/25 00:20:01;;;;;;;35.17;14.40;;;;;;;1.41;58.72;100390.97;8369875;28;20443;-71
2022/03/25 00:24:02;;;;;;;35.25;15.38;;;;;;;1.39;58.60;100393.03;8394986;28;20074;-71
2022/03/25 00:28:03;;;;;;;37.13;15.65;;;;;;;1.33;58.90;100389.38;8392900;28;20048;-71
2022/03/25 00:32:05;;;;;;;39.72;15.15;;;;;;;1.28;59.03;100392.69;8388277;28;20052;-71
2022/03/25 00:36:06;;;;;;;37.95;16.20;;;;;;;1.23;58.87;100389.88;8392360;28;20056;-71
2022/03/25 00:40:07;;;;;;;41.33;16.77;;;;;;;1.24;58.36;100394.16;8394243;28;20403;-72
2022/03/25 00:44:08;;;;;;;44.95;19.35;;;;;;;1.24;57.98;100380.88;8376865;28;20052;-72
2022/03/25 00:48:09;;;;;;;41.88;18.10;;;;;;;1.23;58.75;100378.41;8380398;28;20061;-71
2022/03/25 00:52:10;;;;;;;39.55;17.08;;;;;;;1.20;58.62;100369.03;8369703;28;20045;-72
2022/03/25 00:56:11;;;;;;;45.30;18.05;;;;;;;1.19;58.69;100367.41;8390098;28;20049;-71
2022/03/25 01:00:12;;;;;;;34.25;16.13;;;;;;;1.15;59.06;100371.53;8405354;28;20056;-71
2022/03/25 01:04:13;;;;;;;41.05;17.05;;;;;;;1.11;59.08;100367.66;8386839;28;20064;-71
2022/03/25 01:08:15;;;;;;;38.35;16.02;;;;;;;1.06;59.23;100367.47;8391867;28;20049;-71
2022/03/25 01:12:16;;;;;;;37.00;15.43;;;;;;;1.02;60.07;100371.63;8391467;28;20059;-71
2022/03/25 01:16:17;;;;;;;35.88;15.40;;;;;;;1.01;59.64;100369.97;8387889;28;20063;-72
2022/03/25 01:20:18;;;;;;;35.70;14.82;;;;;;;0.99;59.95;100372.06;8389290;28;20075;-72
2022/03/25 01:24:20;;;;;;;38.70;15.63;;;;;;;0.97;59.53;100363.47;8408018;28;20102;-71
2022/03/25 01:28:21;;;;;;;38.03;15.18;;;;;;;0.96;59.60;100361.00;8393166;28;20603;-71
2022/03/25 01:32:24;;;;;;;37.72;14.77;;;;;;;0.91;59.98;100359.00;8392039;28;20044;-72
2022/03/25 01:36:25;;;;;;;30.40;14.35;;;;;;;0.87;59.68;100363.13;8389758;28;20045;-72
2022/03/25 01:40:27;;;;;;;35.08;14.48;;;;;;;0.78;60.30;100359.09;8390056;28;20500;-72
2022/03/25 01:44:29;;;;;;;30.95;14.25;;;;;;;0.75;60.32;100359.50;8390061;28;20040;-72
2022/03/25 01:48:30;;;;;;;34.15;14.40;;;;;;;0.74;61.05;100357.91;8389316;28;20501;-73
2022/03/25 01:52:32;;;;;;;35.65;14.07;;;;;;;0.74;60.84;100363.22;8390068;28;20045;-71
2022/03/25 01:56:34;;;;;;;33.30;14.48;;;;;;;0.72;60.86;100365.28;8389501;28;20059;-71
2022/03/25 02:00:35;;;;;;;28.95;13.65;;;;;;;0.72;60.52;100359.97;8361746;28;20048;-72
2022/03/25 02:04:36;;;;;;;31.25;13.15;;;;;;;0.70;60.98;100362.00;8391027;28;20052;-71
2022/03/25 02:08:37;;;;;;;33.17;14.23;;;;;;;0.66;61.10;100366.13;8389183;28;20043;-71
2022/03/25 02:12:39;;;;;;;34.67;14.05;;;;;;;0.63;61.26;100361.25;8390174;28;20450;-72
2022/03/25 02:16:43;;;;;;;38.58;15.20;;;;;;;0.59;61.58;100358.19;8389159;28;20084;-72
2022/03/25 02:20:45;;;;;;;32.90;14.90;;;;;;;0.60;61.48;100364.31;8397553;28;20056;-72
2022/03/25 02:24:47;;;;;;;35.40;15.30;;;;;;;0.60;61.47;100367.78;8371209;28;20040;-71
2022/03/25 02:28:48;;;;;;;34.80;15.45;;;;;;;0.57;61.36;100367.41;8365721;28;20057;-72
2022/03/25 02:32:49;;;;;;;36.58;14.77;;;;;;;0.53;61.73;100366.22;8390408;28;20043;-71
2022/03/25 02:36:50;;;;;;;36.17;15.38;;;;;;;0.49;62.13;100371.13;8384697;28;20404;-71
2022/03/25 02:40:52;;;;;;;36.90;16.25;;;;;;;0.43;62.24;100370.13;8397329;28;20128;-71
2022/03/25 02:44:53;;;;;;;37.05;16.20;;;;;;;0.38;63.18;100369.94;8387134;28;20452;-71
2022/03/25 02:48:54;;;;;;;33.90;14.25;;;;;;;0.31;63.33;100369.16;8365430;28;20061;-71
2022/03/25 02:52:56;;;;;;;36.22;16.02;;;;;;;0.24;63.24;100363.06;8382564;28;20036;-71
2022/03/25 02:56:58;;;;;;;42.00;17.55;;;;;;;0.20;63.64;100371.66;8394444;28;20052;-71
2022/03/25 03:00:59;;;;;;;39.85;17.00;;;;;;;0.18;62.89;100374.53;8397813;28;20048;-71
2022/03/25 03:05:00;;;;;;;44.65;17.00;;;;;;;0.13;63.67;100371.69;8384725;28;20044;-71
2022/03/25 03:09:01;;;;;;;40.20;16.27;;;;;;;0.11;63.78;100368.41;8397293;28;20051;-71
2022/03/25 03:13:02;;;;;;;45.20;16.80;;;;;;;0.09;63.76;100370.47;8397004;28;20044;-71
2022/03/25 03:17:04;;;;;;;46.00;17.38;;;;;;;0.04;64.18;100367.63;8379471;28;20055;-71
2022/03/25 03:21:05;;;;;;;42.00;17.73;;;;;;;0.02;64.42;100363.53;8379841;28;20488;-72
2022/03/25 03:25:06;;;;;;;36.38;17.27;;;;;;;-0.02;64.73;100363.16;8368942;28;20175;-71
2022/03/25 03:29:07;;;;;;;44.90;18.60;;;;;;;-0.05;64.22;100363.56;8367566;28;20072;-72
2022/03/25 03:33:08;;;;;;;39.90;18.10;;;;;;;-0.07;64.48;100360.31;8388921;28;20500;-71
2022/03/25 03:37:09;;;;;;;51.35;20.95;;;;;;;-0.11;64.78;100359.09;8369528;28;20170;-71
2022/03/25 03:41:10;;;;;;;54.63;22.30;;;;;;;-0.11;64.18;100359.09;8393890;28;20420;-71
2022/03/25 03:45:13;;;;;;;60.80;24.02;;;;;;;-0.16;64.47;100356.25;8372901;28;20131;-71
2022/03/25 03:49:14;;;;;;;61.45;23.77;;;;;;;-0.21;65.02;100359.50;8362486;28;20068;-71
2022/03/25 03:53:14;;;;;;;65.93;25.08;;;;;;;-0.24;64.86;100359.13;8388033;28;20411;-71
2022/03/25 03:57:15;;;;;;;63.10;25.27;;;;;;;-0.28;64.95;100364.03;8375556;28;20161;-71
2022/03/25 04:01:16;;;;;;;79.18;27.95;;;;;;;-0.31;65.01;100360.97;8382141;28;20044;-71
2022/03/25 04:05:17;;;;;;;66.78;27.67;;;;;;;-0.36;64.77;100358.94;8388631;28;20049;-72
2022/03/25 04:09:18;;;;;;;72.40;30.10;;;;;;;-0.38;64.68;100368.97;8393304;28;20072;-72
2022/03/25 04:13:19;;;;;;;74.68;27.98;;;;;;;-0.37;64.43;100364.47;8367871;28;20403;-72
2022/03/25 04:17:23;;;;;;;77.97;30.42;;;;;;;-0.42;64.13;100357.94;8374545;28;20051;-71
2022/03/25 04:21:25;;;;;;;77.40;30.77;;;;;;;-0.45;64.79;100368.97;8382666;28;20388;-72
2022/03/25 04:25:25;;;;;;;79.80;31.13;;;;;;;-0.48;64.71;100368.56;8380828;28;20064;-72
2022/03/25 04:29:27;;;;;;;77.30;30.27;;;;;;;-0.50;64.75;100370.59;8380414;28;20207;-72
2022/03/25 04:33:28;;;;;;;79.35;31.52;;;;;;;-0.53;64.15;100361.22;8376201;28;20469;-71
2022/03/25 04:37:29;;;;;;;84.53;30.85;;;;;;;-0.57;64.71;100365.31;8362272;28;20411;-71
2022/03/25 04:41:30;;;;;;;83.82;32.70;;;;;;;-0.60;64.76;100371.03;8386125;28;20055;-71
2022/03/25 04:45:32;;;;;;;88.88;33.10;;;;;;;-0.59;64.66;100375.31;8394463;28;20048;-71
2022/03/25 04:49:32;;;;;;;78.82;31.25;;;;;;;-0.60;64.32;100360.41;8374862;28;20072;-71
2022/03/25 04:53:34;;;;;;;79.97;31.95;;;;;;;-0.60;64.50;100371.03;8362470;28;20397;-71
2022/03/25 04:57:35;;;;;;;82.53;31.25;;;;;;;-0.58;64.43;100368.97;8362539;28;20102;-71
2022/03/25 05:01:36;;;;;;;76.43;29.20;;;;;;;-0.58;64.58;100368.97;8383200;28;20052;-72
2022/03/25 05:05:37;;;;;;;72.80;28.08;;;;;;;-0.56;64.27;100382.84;8394030;28;20040;-72
2022/03/25 05:09:38;;;;;;;76.97;29.35;;;;;;;-0.54;64.25;100375.53;8394745;28;20503;-72
2022/03/25 05:13:39;;;;;;;73.40;27.40;;;;;;;-0.51;64.21;100388.38;8394014;28;20041;-71
2022/03/25 05:17:48;;;;;;;79.97;27.30;;;;;;;-0.49;64.45;100383.69;8392405;28;20054;-72
2022/03/25 05:21:49;;;;;;;72.05;27.75;;;;;;;-0.40;63.77;100388.75;8394556;28;20053;-71
2022/03/25 05:25:50;;;;;;;69.10;27.17;;;;;;;-0.33;63.88;100392.22;8392858;28;20499;-73
2022/03/25 05:29:51;;;;;;;73.35;27.88;;;;;;;-0.26;63.61;100387.72;8361538;28;20139;-72
2022/03/25 05:33:52;;;;;;;68.97;27.98;;;;;;;-0.18;63.50;100398.13;8383796;28;20047;-72
2022/03/25 05:37:53;;;;;;;79.47;26.25;;;;;;;-0.09;63.21;100397.69;8393653;28;20098;-72
2022/03/25 05:41:54;;;;;;;64.88;25.92;;;;;;;-0.01;62.92;100401.97;8393607;28;20045;-72
2022/03/25 05:45:56;;;;;;;73.57;27.30;;;;;;;0.08;62.55;100406.03;8408145;28;20412;-72
2022/03/25 05:49:57;;;;;;;72.28;27.50;;;;;;;0.19;62.65;100410.69;8394027;28;20071;-72
2022/03/25 05:53:58;;;;;;;58.90;25.70;;;;;;;0.31;62.23;100410.88;8380861;28;20041;-72
2022/03/25 05:58:00;;;;;;;72.75;27.58;;;;;;;0.42;62.29;100408.34;8400176;28;20053;-72
2022/03/25 06:02:01;;;;;;;67.30;26.17;;;;;;;0.54;61.82;100420.97;8397121;28;20056;-72
2022/03/25 06:06:05;;;;;;;62.90;25.00;;;;;;;0.68;61.26;100418.06;8400116;28;20060;-72
2022/03/25 06:10:08;;;;;;;65.55;26.35;;;;;;;0.88;61.24;100423.28;8399794;28;20040;-71
2022/03/25 06:14:10;;;;;;;68.35;25.58;;;;;;;1.16;60.80;100420.25;8397596;28;20045;-73
2022/03/25 06:18:11;;;;;;;69.82;25.45;;;;;;;1.41;60.72;100417.59;8399583;28;20132;-71
2022/03/25 06:22:11;;;;;;;66.57;26.38;;;;;;;1.62;61.00;100430.53;8399438;28;20059;-71
2022/03/25 06:26:12;;;;;;;68.05;26.15;;;;;;;1.84;60.80;100418.44;8430882;28;20476;-72
2022/03/25 06:30:14;;;;;;;72.70;28.17;;;;;;;2.22;61.49;100420.09;8396958;28;20045;-72
2022/03/25 06:34:20;;;;;;;75.18;27.10;;;;;;;2.64;61.19;100421.84;8430718;28;20047;-71
2022/03/25 06:38:22;;;;;;;77.97;28.85;;;;;;;3.04;59.65;100429.31;8380726;28;20522;-72
2022/03/25 06:42:22;;;;;;;66.47;26.45;;;;;;;3.34;57.23;100427.41;8398383;28;20045;-72
2022/03/25 06:46:23;;;;;;;70.38;26.20;;;;;;;3.64;56.12;100430.84;8398636;28;20052;-72
2022/03/25 06:50:24;;;;;;;76.00;27.65;;;;;;;3.91;54.20;100431.19;8397821;28;20158;-72
2022/03/25 06:54:26;;;;;;;71.25;27.75;;;;;;;4.25;51.78;100432.19;8395990;28;20045;-72
2022/03/25 06:58:27;;;;;;;70.53;27.85;;;;;;;4.54;50.44;100439.25;8396098;28;20072;-72
2022/03/25 07:02:28;;;;;;;75.78;28.85;;;;;;;4.72;50.30;100437.44;8397452;28;20057;-72
2022/03/25 07:06:30;;;;;;;79.93;28.02;;;;;;;4.98;48.98;100436.88;8412566;28;20539;-72
2022/03/25 07:10:32;;;;;;;69.47;26.27;;;;;;;5.14;49.18;100446.81;8398308;28;20134;-72
2022/03/25 07:14:33;;;;;;;73.22;27.58;;;;;;;5.40;48.35;100446.19;8397492;28;20124;-72
2022/03/25 07:18:34;;;;;;;70.75;29.13;;;;;;;5.53;47.95;100445.91;8397789;28;20056;-71
2022/03/25 07:22:36;;;;;;;76.22;28.35;;;;;;;5.68;48.00;100452.56;8395258;28;20498;-72
2022/03/25 07:26:37;;;;;;;72.30;28.13;;;;;;;5.89;47.79;100455.34;8395181;28;20083;-71
2022/03/25 07:30:38;;;;;;;76.38;28.70;;;;;;;6.14;47.92;100456.75;8394802;28;20499;-72
2022/03/25 07:34:39;;;;;;;74.20;28.48;;;;;;;6.23;47.50;100456.13;8396963;28;20488;-73
2022/03/25 07:38:42;;;;;;;71.43;28.88;;;;;;;6.48;46.80;100462.88;8394584;28;20094;-73
2022/03/25 07:42:46;;;;;;;67.53;28.55;;;;;;;6.54;46.64;100461.88;8395665;28;20045;-72
2022/03/25 07:46:47;;;;;;;70.43;26.67;;;;;;;6.72;45.72;100466.91;8395295;28;20044;-72
2022/03/25 07:50:48;;;;;;;63.88;26.98;;;;;;;6.84;45.90;100458.75;8396098;28;20568;-73
2022/03/25 07:54:50;;;;;;;69.00;26.73;;;;;;;6.90;45.64;100466.63;8395072;28;20037;-72
2022/03/25 07:58:51;;;;;;;69.55;25.83;;;;;;;7.14;44.64;100467.94;8395619;28;20075;-72
2022/03/25 08:02:53;;;;;;;66.50;25.38;;;;;;;7.43;44.16;100471.19;8395300;28;20060;-72
2022/03/25 08:06:54;;;;;;;66.85;26.60;;;;;;;7.60;44.17;100468.41;8395810;28;20059;-72
2022/03/25 08:10:56;;;;;;;58.08;24.20;;;;;;;7.78;43.89;100478.75;8395908;28;20052;-72
2022/03/25 08:14:57;;;;;;;66.15;24.90;;;;;;;8.10;42.14;100476.03;8394995;28;20489;-72
2022/03/25 08:18:58;;;;;;;49.40;21.60;;;;;;;8.35;41.59;100475.44;8395685;28;20045;-73
2022/03/25 08:22:59;;;;;;;54.50;22.38;;;;;;;8.55;41.22;100472.84;8393215;28;20516;-72
2022/03/25 08:31:21;;;;;;;55.47;21.40;;;;;;;8.76;40.69;100485.31;8395117;28;20036;-72
2022/03/25 08:35:22;;;;;;;47.53;20.90;;;;;;;8.96;39.50;100489.16;8395819;28;20106;-72
2022/03/25 08:39:24;;;;;;;55.53;21.48;;;;;;;9.19;39.41;100489.50;8394863;28;20064;-72
2022/03/25 08:43:24;;;;;;;55.28;19.45;;;;;;;9.41;38.63;100486.56;8394471;28;20119;-72
2022/03/25 08:47:25;;;;;;;53.70;18.98;;;;;;;9.57;38.38;100496.28;8394873;28;20523;-73
2022/03/25 08:51:27;;;;;;;46.70;19.10;;;;;;;9.66;38.77;100494.72;8394799;28;20135;-72
2022/03/25 08:55:28;;;;;;;41.47;17.58;;;;;;;9.80;38.77;100488.75;8394503;28;20048;-72
2022/03/25 08:59:30;;;;;;;39.17;16.95;;;;;;;9.87;38.13;100495.53;8394742;28;20049;-72
2022/03/25 09:03:32;;;;;;;56.10;17.65;;;;;;;9.93;37.81;100493.63;8394403;28;20059;-72
2022/03/25 09:07:33;;;;;;;53.00;15.52;;;;;;;10.20;36.66;100488.78;8394514;28;20041;-72
2022/03/25 09:11:36;;;;;;;34.60;14.63;;;;;;;10.28;36.10;100501.72;8394797;28;20053;-72
2022/03/25 09:15:37;;;;;;;40.50;15.18;;;;;;;10.35;35.63;100506.84;8393703;28;20049;-72
2022/03/25 09:19:38;;;;;;;40.67;17.35;;;;;;;10.44;35.98;100495.22;8394461;28;20143;-72
2022/03/25 09:23:39;;;;;;;44.85;16.95;;;;;;;10.58;36.24;100496.25;8394547;28;20053;-72
2022/03/25 09:27:40;;;;;;;37.78;15.30;;;;;;;10.78;35.28;100499.97;8399076;28;20090;-73
2022/03/25 09:31:43;;;;;;;38.65;14.75;;;;;;;11.00;34.93;100497.69;8401154;28;20065;-72
2022/03/25 09:35:45;;;;;;;35.67;15.15;;;;;;;11.17;35.00;100490.03;8400818;28;20048;-73
2022/03/25 09:39:46;;;;;;;38.83;16.05;;;;;;;11.43;33.71;100502.31;8401287;28;20132;-73
2022/03/25 09:43:47;;;;;;;38.83;15.80;;;;;;;11.42;33.76;100500.72;8400261;28;20068;-72
2022/03/25 09:47:49;;;;;;;34.13;14.25;;;;;;;11.47;33.53;100501.78;8400414;28;20625;-72
2022/03/25 09:51:50;;;;;;;37.40;14.20;;;;;;;11.86;32.41;100499.88;8400031;28;20419;-72
2022/03/25 09:55:52;;;;;;;33.15;13.52;;;;;;;11.97;31.64;100501.44;8400065;28;20083;-72
2022/03/25 09:59:53;;;;;;;42.20;17.83;;;;;;;12.07;32.15;100501.34;8397205;28;20416;-72
2022/03/25 10:03:54;;;;;;;44.63;20.23;;;;;;;12.13;33.43;100502.91;8413513;28;20055;-72
2022/03/25 10:07:55;;;;;;;50.65;20.35;;;;;;;12.40;32.84;100504.28;8397721;28;20044;-72
2022/03/25 10:11:56;;;;;;;48.22;19.30;;;;;;;12.42;32.85;100493.97;8399214;28;20480;-72
2022/03/25 10:15:57;;;;;;;49.88;20.08;;;;;;;12.58;32.87;100500.84;8398080;28;20131;-72
2022/03/25 10:19:58;;;;;;;47.65;18.73;;;;;;;12.73;31.80;100492.53;8398918;28;20068;-72
2022/03/25 10:23:59;;;;;;;52.92;20.00;;;;;;;12.67;31.87;100499.09;8399027;28;20048;-72
2022/03/25 10:28:00;;;;;;;48.60;19.35;;;;;;;12.81;32.20;100500.00;8398687;28;20496;-72
2022/03/25 10:32:09;;;;;;;46.17;19.20;;;;;;;12.93;31.88;100497.72;8396766;28;20123;-73
2022/03/25 10:36:11;;;;;;;;;;;;;;;12.98;32.07;100489.50;8397968;28;20041;-72
2022/03/25 10:40:12;;;;;;;39.92;16.75;;;;;;;13.24;30.97;100486.47;8398069;28;19935;-72
2022/03/25 10:44:13;;;;;;;43.05;19.08;;;;;;;13.27;31.01;100502.19;8395724;28;20504;-72
2022/03/25 10:48:19;;;;;;;46.95;19.23;;;;;;;13.27;31.27;100492.13;8397764;28;20063;-72
2022/03/25 10:52:34;;;;;;;51.35;21.17;;;;;;;13.29;31.30;100479.06;8397056;28;20049;-73
2022/03/25 10:56:52;;;;;;;49.47;19.65;;;;;;;13.40;32.12;100479.75;8397615;28;20056;-72
2022/03/25 11:00:54;;;;;;;40.55;17.67;;;;;;;13.55;31.46;100487.66;8397140;28;20041;-73
2022/03/25 11:04:55;;;;;;;47.15;19.77;;;;;;;13.60;31.14;100484.84;8397316;28;20048;-74
2022/03/25 11:08:56;;;;;;;48.42;19.67;;;;;;;13.53;31.91;100479.00;8396212;28;20405;-73
2022/03/25 11:13:00;;;;;;;42.58;20.20;;;;;;;13.72;31.61;100476.25;8397625;28;20044;-73
2022/03/25 11:17:01;;;;;;;40.17;19.08;;;;;;;13.87;31.08;100474.09;8396723;28;20052;-72
2022/03/25 11:21:04;;;;;;;44.70;17.48;;;;;;;14.03;30.53;100462.97;8397004;28;20515;-72
2022/03/25 11:25:07;;;;;;;47.75;18.55;;;;;;;14.15;30.29;100471.47;8396621;28;20052;-73
2022/03/25 11:29:12;;;;;;;45.15;19.08;;;;;;;14.19;29.76;100464.31;8395073;28;20044;-73
2022/03/25 11:33:13;;;;;;;50.67;19.25;;;;;;;14.14;29.95;100461.69;8396219;28;20389;-73
2022/03/25 11:37:24;;;;;;;43.22;17.25;;;;;;;14.22;29.86;100450.16;8394337;28;20049;-73
2022/03/25 11:41:26;;;;;;;43.75;18.30;;;;;;;14.33;29.77;100459.69;8395577;28;20511;-73
2022/03/25 11:45:34;;;;;;;47.50;20.42;;;;;;;14.34;30.06;100456.69;8395476;28;20562;-73
2022/03/25 11:49:41;;;;;;;46.30;19.50;;;;;;;14.48;30.22;100443.16;8394758;28;20411;-73
2022/03/25 11:53:42;;;;;;;50.65;19.52;;;;;;;14.58;30.49;100440.22;8390144;28;20341;-72
2022/03/25 11:57:44;;;;;;;51.42;20.95;;;;;;;14.76;30.12;100444.72;8395255;28;20055;-72
2022/03/25 12:01:45;;;;;;;50.97;21.85;;;;;;;14.71;29.78;100431.25;8394724;28;20633;-73
2022/03/25 12:06:01;;;;;;;47.47;20.08;;;;;;;14.84;30.00;100439.69;8410021;28;20051;-73
2022/03/25 12:10:03;;;;;;;48.33;19.88;;;;;;;14.84;29.75;100431.53;8409476;28;20049;-72
2022/03/25 12:14:05;;;;;;;44.50;20.38;;;;;;;14.98;29.32;100432.31;8392303;28;20041;-72
2022/03/25 12:18:47;;;;;;;49.60;21.02;;;;;;;14.88;29.42;100427.09;8395917;28;20403;-73
2022/03/25 12:22:47;;;;;;;46.40;21.45;;;;;;;14.89;30.32;100421.34;8396742;28;20466;-72
2022/03/25 12:27:00;;;;;;;52.90;21.90;;;;;;;15.15;30.23;100410.72;8395485;28;20411;-72
2022/03/25 12:31:04;;;;;;;50.17;21.92;;;;;;;15.28;30.51;100415.28;8396535;28;20488;-72
2022/03/25 12:35:16;;;;;;;45.35;19.25;;;;;;;15.59;29.48;100409.97;8395615;28;20055;-71
2022/03/25 12:39:17;;;;;;;44.92;20.67;;;;;;;15.63;28.49;100417.19;8394963;28;20056;-72
2022/03/25 12:43:18;;;;;;;47.35;20.48;;;;;;;15.54;29.11;100402.72;8395402;28;20515;-72
2022/03/25 12:47:30;;;;;;;48.10;21.58;;;;;;;15.58;29.17;100398.28;8396090;28;20064;-73
2022/03/25 12:51:32;;;;;;;45.63;18.60;;;;;;;15.88;29.44;100401.31;8394757;28;20090;-72
2022/03/25 12:55:33;;;;;;;47.13;20.17;;;;;;;15.96;28.32;100397.84;8395046;28;20106;-72
2022/03/25 12:59:36;;;;;;;48.20;21.30;;;;;;;15.84;28.47;100394.88;8376329;28;20048;-72
2022/03/25 13:03:36;;;;;;;49.40;20.52;;;;;;;15.80;29.36;100392.00;8395442;28;20056;-72
2022/03/25 13:07:39;;;;;;;45.80;19.70;;;;;;;15.79;28.82;100386.84;8394759;28;20464;-72
2022/03/25 13:11:40;;;;;;;51.95;20.98;;;;;;;15.94;29.09;100383.72;8391642;28;20044;-73
2022/03/25 13:15:47;;;;;;;43.38;18.75;;;;;;;15.99;28.16;100376.22;8394196;28;20049;-72
2022/03/25 13:19:55;;;;;;;37.25;17.17;;;;;;;15.99;27.76;100375.41;8394165;28;20117;-72
2022/03/25 13:23:56;;;;;;;;;;;;;;;15.98;27.69;100384.69;8394537;28;20052;-72
2022/03/25 13:27:59;;;;;;;36.75;16.13;;;;;;;16.66;26.66;100366.97;8393477;28;19927;-73
2022/03/25 13:32:03;;;;;;;32.53;15.27;;;;;;;17.71;25.80;100370.22;8389990;28;20099;-73
2022/03/25 13:36:04;;;;;;;32.00;14.10;;;;;;;18.49;24.30;100359.75;8389936;28;20044;-73
2022/03/25 13:40:27;;;;;;;33.33;13.40;;;;;;;19.35;23.10;100372.81;8389975;28;20095;-72
2022/03/25 13:44:28;;;;;;;31.60;14.32;;;;;;;19.64;22.09;100369.97;8389983;28;20057;-73
2022/03/25 13:48:58;;;;;;;31.15;14.30;;;;;;;20.77;21.95;100366.63;8388567;28;20107;-73
2022/03/25 13:53:09;;;;;;;32.83;14.68;;;;;;;21.65;21.07;100368.38;8241806;28;20046;-73
2022/03/25 13:57:16;;;;;;;39.55;14.40;;;;;;;22.76;20.08;100362.53;8258634;28;20170;-73
2022/03/25 14:01:21;;;;;;;30.92;12.65;;;;;;;23.12;18.37;100358.56;8257208;28;20066;-73
2022/03/25 14:05:26;;;;;;;26.35;13.43;;;;;;;23.31;17.80;100366.84;8257697;28;20106;-74
2022/03/25 14:09:40;;;;;;;26.08;12.30;;;;;;;22.90;18.41;100368.34;8242688;28;20054;-73
2022/03/25 14:13:58;;;;;;;23.15;11.80;;;;;;;23.19;16.94;100357.94;8262740;28;20510;-74
2022/03/25 14:18:00;;;;;;;29.73;12.60;;;;;;;23.15;17.43;100357.88;8247942;28;20621;-74
2022/03/25 14:22:01;;;;;;;28.02;12.45;;;;;;;23.11;16.90;100349.50;8247992;28;20047;-73
2022/03/25 14:26:02;;;;;;;29.50;15.38;;;;;;;23.01;17.89;100341.81;8262804;28;20038;-74
2022/03/25 14:30:04;;;;;;;28.90;14.13;;;;;;;23.33;17.90;100341.66;8368706;28;20056;-73
2022/03/25 14:34:05;;;;;;;28.02;14.13;;;;;;;23.82;17.77;100348.13;8398310;28;20049;-74
2022/03/25 14:38:07;;;;;;;32.88;15.48;;;;;;;23.63;18.35;100344.63;8398787;28;20048;-73
2022/03/25 14:42:08;;;;;;;31.67;14.88;;;;;;;23.63;17.95;100334.41;8396973;28;20052;-74
2022/03/25 14:46:09;;;;;;;32.40;15.23;;;;;;;24.30;17.49;100337.53;8395133;28;20504;-73
2022/03/25 14:50:12;;;;;;;28.25;14.65;;;;;;;24.30;17.16;100329.25;8397422;28;20048;-73
2022/03/25 14:54:14;;;;;;;36.80;15.27;;;;;;;24.57;17.71;100322.56;8379321;28;20416;-73
2022/03/25 14:58:15;;;;;;;30.77;14.10;;;;;;;24.56;17.45;100322.91;8391365;28;20477;-73
2022/03/25 15:02:17;;;;;;;26.33;13.05;;;;;;;23.94;17.15;100323.13;8396329;28;20052;-73
2022/03/25 15:06:19;;;;;;;29.80;13.93;;;;;;;23.87;17.91;100305.66;8378525;28;20062;-73
2022/03/25 15:10:20;;;;;;;28.35;13.15;;;;;;;22.91;18.79;100314.84;8391951;28;20057;-74
2022/03/25 15:14:24;;;;;;;27.65;12.73;;;;;;;23.17;18.90;100317.75;8395202;28;20071;-73
2022/03/25 15:18:26;;;;;;;28.75;12.95;;;;;;;23.20;18.84;100304.41;8395232;28;20083;-73
2022/03/25 15:22:27;;;;;;;30.77;14.40;;;;;;;22.73;19.74;100305.44;8394979;28;20045;-73
2022/03/25 15:26:28;;;;;;;32.30;15.20;;;;;;;21.59;21.28;100314.81;8395152;28;20037;-73
2022/03/25 15:34:49;;;;;;;36.30;14.55;;;;;;;22.38;21.23;100302.66;8395015;28;20090;-73
2022/03/25 15:38:50;;;;;;;29.55;16.08;;;;;;;23.00;20.93;100301.66;8395118;28;20109;-73
2022/03/25 15:42:51;;;;;;;38.22;16.45;;;;;;;21.72;22.03;100313.59;8394403;28;20045;-73
2022/03/25 15:46:51;;;;;;;37.45;16.15;;;;;;;20.39;23.92;100307.44;8394391;28;20412;-73
2022/03/25 15:50:53;;;;;;;34.85;16.88;;;;;;;19.44;25.12;100310.53;8388528;28;20045;-73
2022/03/25 15:54:54;;;;;;;40.03;17.55;;;;;;;18.77;26.53;100319.81;8388719;28;20074;-73
2022/03/25 15:58:55;;;;;;;42.17;18.90;;;;;;;18.72;26.85;100311.81;8393297;28;20045;-72
2022/03/25 16:02:59;;;;;;;41.17;18.98;;;;;;;18.20;27.54;100322.25;8396119;28;20064;-71
2022/03/25 16:07:00;;;;;;;32.88;17.30;;;;;;;17.57;28.33;100320.38;8394116;28;20120;-72
2022/03/25 16:11:01;;;;;;;43.50;17.88;;;;;;;16.92;28.93;100315.97;8392591;28;20458;-72
2022/03/25 16:15:03;;;;;;;39.28;19.10;;;;;;;16.75;29.33;100310.53;8376569;28;20106;-73
2022/03/25 16:19:04;;;;;;;48.30;21.75;;;;;;;16.47;30.14;100318.97;8386074;28;20179;-73
2022/03/25 16:23:06;;;;;;;43.78;21.40;;;;;;;16.09;30.49;100326.09;8373679;28;20056;-72
2022/03/25 16:27:07;;;;;;;40.10;20.92;;;;;;;15.91;31.20;100324.44;8387622;28;20090;-72
2022/03/25 16:31:08;;;;;;;44.55;21.00;;;;;;;15.56;31.62;100321.53;8381331;28;20135;-73
2022/03/25 16:35:09;;;;;;;50.25;21.13;;;;;;;15.35;31.69;100325.84;8380834;28;20115;-73
2022/03/25 16:39:11;;;;;;;48.47;22.08;;;;;;;15.04;32.38;100320.34;8395266;28;20101;-73
2022/03/25 16:43:12;;;;;;;43.63;20.38;;;;;;;14.74;33.20;100313.72;8395260;28;20122;-72
2022/03/25 16:47:13;;;;;;;53.38;21.77;;;;;;;14.40;34.15;100318.00;8394617;28;20132;-72
2022/03/25 16:51:14;;;;;;;49.88;22.63;;;;;;;14.07;34.59;100314.59;8394177;28;20079;-72
2022/03/25 16:55:16;;;;;;;49.55;22.60;;;;;;;13.78;35.12;100312.97;8329746;28;20583;-72
2022/03/25 16:59:17;;;;;;;38.53;20.35;;;;;;;13.51;35.78;100312.94;8362227;28;20477;-72
2022/03/25 17:03:18;;;;;;;48.08;20.58;;;;;;;13.17;36.79;100317.84;8361060;28;20206;-72
2022/03/25 17:07:20;;;;;;;39.95;19.83;;;;;;;12.89;37.31;100312.31;8361763;28;20045;-72
2022/03/25 17:11:22;;;;;;;46.13;20.35;;;;;;;12.54;38.45;100310.09;8392140;28;20045;-72
2022/03/25 17:15:24;;;;;;;46.65;21.13;;;;;;;12.33;39.01;100314.19;8391676;28;20147;-72
2022/03/25 17:19:25;;;;;;;55.70;21.17;;;;;;;12.04;39.53;100317.00;8378813;28;20047;-73
2022/03/25 17:23:29;;;;;;;43.80;20.45;;;;;;;11.62;40.88;100323.09;8391109;28;20056;-72
2022/03/25 17:27:30;;;;;;;68.88;25.45;;;;;;;11.26;41.71;100323.41;8391721;28;20051;-72
2022/03/25 17:31:31;;;;;;;50.55;22.65;;;;;;;11.09;41.72;100333.84;8406633;28;20131;-72
2022/03/25 17:35:37;;;;;;;41.13;22.25;;;;;;;10.78;42.51;100335.16;8373489;28;20045;-72
2022/03/25 17:39:38;;;;;;;48.92;22.10;;;;;;;10.53;43.07;100336.88;8368152;28;20423;-72
2022/03/25 17:43:39;;;;;;;51.03;22.23;;;;;;;10.33;43.74;100347.78;8390383;28;20053;-72
2022/03/25 17:47:40;;;;;;;47.38;22.63;;;;;;;10.07;44.63;100348.94;8396537;28;20470;-72
2022/03/25 17:51:41;;;;;;;50.55;23.50;;;;;;;9.82;45.18;100351.72;8397637;28;20582;-72
2022/03/25 17:55:43;;;;;;;80.80;32.90;;;;;;;9.48;45.60;100363.09;8389961;28;20051;-72
2022/03/25 17:59:45;;;;;;;64.50;29.77;;;;;;;9.31;46.13;100359.84;8381442;28;20053;-72
2022/03/25 18:03:46;;;;;;;74.10;32.95;;;;;;;9.14;46.69;100352.06;8397267;28;20102;-72
2022/03/25 18:07:47;;;;;;;68.20;31.15;;;;;;;8.97;47.23;100362.25;8399620;28;20086;-72
2022/03/25 18:11:47;;;;;;;75.00;29.30;;;;;;;8.75;47.76;100365.19;8399563;28;20126;-72
2022/03/25 18:15:50;;;;;;;58.83;26.60;;;;;;;8.63;48.12;100364.59;8399704;28;20052;-72
2022/03/25 18:19:51;;;;;;;75.63;28.33;;;;;;;8.56;47.81;100372.16;8399579;28;20079;-73
2022/03/25 18:23:52;;;;;;;61.85;27.88;;;;;;;8.40;48.32;100367.78;8399320;28;20052;-72
2022/03/25 18:27:53;;;;;;;67.28;29.35;;;;;;;8.29;48.65;100371.47;8377238;28;20040;-72
2022/03/25 18:31:55;;;;;;;66.55;30.08;;;;;;;8.13;49.45;100367.91;8368284;28;20041;-72
2022/03/25 18:35:55;;;;;;;63.20;31.77;;;;;;;8.00;49.58;100362.97;8396655;28;20086;-73